Time;durP1;ratioP1;P1;durP2;ratioP2;P2;SDS_P1;SDS_P2;PMS_P1;PMS_P2;Temp;Humidity;BMP_temperature;BMP_pressure;BME280_temperature;BME280_humidity;BME280_pressure;Samples;Min_cycle;Max_cycle;Signal;HPM_P1;HPM_P2
2021/12/27 00:00:58;;;;;;;0.20;0.20;;;;;;;-9.47;100.00;100441.13;5026366;28;20045;-77
2021/12/27 00:03:26;;;;;;;0.10;0.10;;;;;;;-9.44;100.00;100440.00;5036529;28;20054;-80
2021/12/27 00:05:59;;;;;;;0.20;0.20;;;;;;;-9.48;100.00;100439.47;5025300;28;20057;-77
2021/12/27 00:08:33;;;;;;;0.10;0.10;;;;;;;-9.58;100.00;100423.75;5028909;28;20482;-80
2021/12/27 00:11:01;;;;;;;0.13;0.13;;;;;;;-9.46;100.00;100432.25;5043453;28;20053;-80
2021/12/27 00:13:34;;;;;;;0.10;0.10;;;;;;;-9.48;100.00;100433.38;5025858;28;20052;-78
2021/12/27 00:16:10;;;;;;;0.10;0.10;;;;;;;-9.51;100.00;100433.66;5044584;28;20371;-79
2021/12/27 00:18:38;;;;;;;0.20;0.20;;;;;;;-9.45;100.00;100435.69;5014121;28;20060;-79
2021/12/27 00:21:11;;;;;;;0.10;0.10;;;;;;;-9.49;100.00;100424.63;5023983;28;20053;-79
2021/12/27 00:23:44;;;;;;;0.10;0.10;;;;;;;-9.55;100.00;100406.81;5023364;28;20065;-78
2021/12/27 00:26:12;;;;;;;0.15;0.15;;;;;;;-9.34;100.00;100409.06;5021052;28;20491;-79
2021/12/27 00:28:41;;;;;;;0.10;0.10;;;;;;;-9.42;100.00;100399.34;5045714;28;20061;-79
2021/12/27 00:31:10;;;;;;;0.20;0.20;;;;;;;-9.48;100.00;100399.94;5028142;28;20045;-79
2021/12/27 00:33:43;;;;;;;0.20;0.20;;;;;;;-9.52;100.00;100387.25;5024252;28;20057;-79
2021/12/27 00:36:17;;;;;;;0.20;0.20;;;;;;;-9.48;100.00;100388.59;5042927;28;20052;-78
2021/12/27 00:38:50;;;;;;;0.10;0.10;;;;;;;-9.61;100.00;100379.31;5024796;28;20405;-78
2021/12/27 00:41:23;;;;;;;0.20;0.20;;;;;;;-9.61;100.00;100386.34;5022558;28;20046;-79
2021/12/27 00:43:56;;;;;;;0.17;0.17;;;;;;;-9.65;100.00;100382.38;5026622;28;20049;-78
2021/12/27 00:46:30;;;;;;;0.20;0.20;;;;;;;-9.65;100.00;100383.22;5024360;28;20406;-79
2021/12/27 00:49:04;;;;;;;0.10;0.10;;;;;;;-9.68;100.00;100378.28;5019670;28;20058;-79
2021/12/27 00:51:37;;;;;;;0.10;0.10;;;;;;;-9.71;100.00;100368.03;5025934;28;20050;-79
2021/12/27 00:54:10;;;;;;;0.20;0.20;;;;;;;-9.71;100.00;100361.94;5033711;28;20045;-79
2021/12/27 00:56:44;;;;;;;0.20;0.20;;;;;;;-9.77;100.00;100355.50;5021603;28;20057;-79
2021/12/27 00:59:17;;;;;;;0.10;0.10;;;;;;;-9.68;100.00;100361.63;5029962;28;20045;-79
2021/12/27 01:01:52;;;;;;;0.20;0.20;;;;;;;-9.65;100.00;100346.34;5022570;28;20497;-79
2021/12/27 01:04:25;;;;;;;0.10;0.10;;;;;;;-9.60;100.00;100349.34;5021362;28;20068;-79
2021/12/27 01:06:58;;;;;;;0.20;0.20;;;;;;;-9.62;100.00;100361.84;5018325;28;20072;-79
2021/12/27 01:09:42;;;;;;;0.10;0.10;;;;;;;-9.53;100.00;100373.22;5019631;28;20050;-78
2021/12/27 01:12:30;;;;;;;0.15;0.15;;;;;;;-9.41;100.00;100366.72;5023799;28;20057;-79
2021/12/27 01:15:33;;;;;;;0.10;0.10;;;;;;;-9.34;100.00;100374.00;5016292;28;20053;-78
2021/12/27 01:18:07;;;;;;;0.20;0.20;;;;;;;-9.27;100.00;100367.94;5020866;28;20700;-78
2021/12/27 01:20:36;;;;;;;0.20;0.20;;;;;;;-9.23;100.00;100369.25;5016011;28;20050;-79
2021/12/27 01:23:09;;;;;;;0.10;0.10;;;;;;;-9.12;100.00;100364.72;5030908;28;20041;-79
2021/12/27 01:25:38;;;;;;;0.20;0.20;;;;;;;-9.10;100.00;100349.53;5018094;28;20406;-78
2021/12/27 01:28:12;;;;;;;0.15;0.15;;;;;;;-9.00;100.00;100346.78;5022189;28;20494;-79
2021/12/27 01:30:48;;;;;;;0.13;0.13;;;;;;;-8.89;100.00;100341.22;5019200;28;20542;-78
2021/12/27 01:33:24;;;;;;;0.20;0.20;;;;;;;-8.83;100.00;100329.19;5026919;28;20053;-78
2021/12/27 01:35:58;;;;;;;0.20;0.20;;;;;;;-8.79;100.00;100327.91;5024588;28;20049;-79
2021/12/27 01:38:34;;;;;;;0.10;0.10;;;;;;;-8.77;100.00;100332.03;5029527;28;20045;-78
2021/12/27 01:41:12;;;;;;;0.20;0.20;;;;;;;-8.65;100.00;100337.78;5024606;28;20140;-79
2021/12/27 01:43:41;;;;;;;0.10;0.10;;;;;;;-8.75;100.00;100337.13;5025911;28;20065;-78
2021/12/27 01:46:12;;;;;;;0.10;0.10;;;;;;;-8.70;100.00;100334.81;5026304;28;20482;-80
2021/12/27 01:48:54;;;;;;;0.20;0.20;;;;;;;-8.75;100.00;100330.03;5023224;28;20053;-78
2021/12/27 01:51:31;;;;;;;0.10;0.10;;;;;;;-8.79;100.00;100333.97;5037343;28;20390;-79
2021/12/27 01:54:04;;;;;;;0.20;0.20;;;;;;;-8.75;100.00;100340.59;5044034;28;20060;-78
2021/12/27 01:56:38;;;;;;;0.10;0.10;;;;;;;-8.80;100.00;100332.31;5018248;28;20054;-79
2021/12/27 01:59:11;;;;;;;0.20;0.20;;;;;;;-8.77;100.00;100321.47;5025113;28;20042;-78
2021/12/27 02:01:44;;;;;;;0.10;0.10;;;;;;;-8.62;100.00;100336.66;5023870;28;20046;-78
2021/12/27 02:04:19;;;;;;;0.10;0.10;;;;;;;-8.51;100.00;100333.69;5022339;28;20656;-78
2021/12/27 02:06:53;;;;;;;0.10;0.10;;;;;;;-8.45;100.00;100322.50;5019238;28;20053;-79
2021/12/27 02:09:36;;;;;;;0.20;0.20;;;;;;;-8.49;100.00;100300.06;5022447;28;20073;-79
2021/12/27 02:12:10;;;;;;;0.20;0.20;;;;;;;-8.35;100.00;100306.47;5020276;28;20057;-78
2021/12/27 02:14:43;;;;;;;0.20;0.20;;;;;;;-8.30;100.00;100308.59;5026287;28;20053;-79
2021/12/27 02:17:18;;;;;;;0.20;0.20;;;;;;;-8.23;100.00;100317.50;5038443;28;20053;-78
2021/12/27 02:19:54;;;;;;;0.10;0.10;;;;;;;-8.16;100.00;100312.38;5016921;28;20045;-78
2021/12/27 02:22:28;;;;;;;0.10;0.10;;;;;;;-8.16;100.00;100302.66;5028534;28;20030;-77
2021/12/27 02:24:57;;;;;;;0.13;0.13;;;;;;;-8.11;100.00;100297.69;5026921;28;20402;-79
2021/12/27 02:27:30;;;;;;;0.10;0.10;;;;;;;-8.09;100.00;100292.22;5024560;28;20041;-79
2021/12/27 02:30:06;;;;;;;0.20;0.20;;;;;;;-8.02;100.00;100285.31;5021489;28;21088;-77
2021/12/27 02:32:48;;;;;;;0.20;0.20;;;;;;;-8.04;100.00;100280.19;5027242;28;20048;-78
2021/12/27 02:35:24;;;;;;;0.20;0.20;;;;;;;-8.03;100.00;100284.47;5028814;28;20052;-77
2021/12/27 02:37:54;;;;;;;0.10;0.10;;;;;;;-7.96;100.00;100266.13;5029484;28;20074;-78
2021/12/27 02:40:24;;;;;;;0.20;0.20;;;;;;;-7.92;100.00;100272.72;5025763;28;20501;-77
2021/12/27 02:43:00;;;;;;;0.10;0.10;;;;;;;-7.93;100.00;100263.16;5047987;28;20701;-78
2021/12/27 02:45:35;;;;;;;0.10;0.10;;;;;;;-7.82;100.00;100264.59;5024933;28;20038;-78
2021/12/27 02:48:09;;;;;;;0.10;0.10;;;;;;;-7.82;100.00;100259.31;5030359;28;20394;-79
2021/12/27 02:50:40;;;;;;;0.10;0.10;;;;;;;-7.78;100.00;100243.97;5045336;28;20049;-78
2021/12/27 02:53:09;;;;;;;0.30;0.30;;;;;;;-7.86;100.00;100231.59;5025390;28;20038;-78
2021/12/27 02:55:39;;;;;;;0.20;0.20;;;;;;;-7.80;100.00;100249.44;5024459;28;20053;-79
2021/12/27 02:58:13;;;;;;;0.20;0.20;;;;;;;-7.76;100.00;100242.81;5027442;28;20050;-78
2021/12/27 03:00:50;;;;;;;0.10;0.10;;;;;;;-7.75;100.00;100240.97;5031611;28;20034;-78
2021/12/27 03:03:24;;;;;;;0.17;0.17;;;;;;;-7.75;100.00;100236.50;5029216;28;20057;-78
2021/12/27 03:05:54;;;;;;;0.20;0.20;;;;;;;-7.79;100.00;100234.38;5019941;28;20053;-78
2021/12/27 03:08:28;;;;;;;0.20;0.20;;;;;;;-7.75;100.00;100231.22;5027046;28;20049;-79
2021/12/27 03:10:58;;;;;;;0.20;0.20;;;;;;;-7.73;100.00;100225.78;5024096;28;20046;-78
2021/12/27 03:13:34;;;;;;;0.20;0.20;;;;;;;-7.73;100.00;100226.59;5024564;28;20049;-78
2021/12/27 03:16:05;;;;;;;0.20;0.20;;;;;;;-7.67;100.00;100221.63;5027273;28;20474;-78
2021/12/27 03:18:40;;;;;;;0.20;0.20;;;;;;;-7.78;100.00;100201.69;5031057;28;20049;-77
2021/12/27 03:21:11;;;;;;;0.20;0.20;;;;;;;-7.67;100.00;100219.00;5028574;28;20064;-78
2021/12/27 03:23:41;;;;;;;0.20;0.20;;;;;;;-7.66;100.00;100215.34;5026548;28;20057;-77
2021/12/27 03:26:10;;;;;;;0.20;0.20;;;;;;;-7.69;100.00;100206.78;5027716;28;20050;-77
2021/12/27 03:28:40;;;;;;;0.20;0.20;;;;;;;-7.63;100.00;100217.66;5029500;28;20482;-79
2021/12/27 03:31:15;;;;;;;0.20;0.20;;;;;;;-7.63;100.00;100207.09;5023663;28;20053;-80
2021/12/27 03:33:48;;;;;;;0.20;0.20;;;;;;;-7.60;100.00;100204.91;5023453;28;20052;-79
2021/12/27 03:36:24;;;;;;;0.20;0.20;;;;;;;-7.53;100.00;100199.75;5018738;28;20042;-78
2021/12/27 03:38:57;;;;;;;0.13;0.13;;;;;;;-7.53;100.00;100190.00;5019697;28;20044;-78
2021/12/27 03:41:30;;;;;;;0.10;0.10;;;;;;;-7.46;100.00;100203.34;5026018;28;20046;-78
2021/12/27 03:44:04;;;;;;;0.10;0.10;;;;;;;-7.45;100.00;100188.34;5032814;28;20053;-79
2021/12/27 03:46:33;;;;;;;0.20;0.20;;;;;;;-7.40;100.00;100183.31;5027219;28;20052;-78
2021/12/27 03:49:06;;;;;;;0.10;0.10;;;;;;;-7.41;100.00;100190.44;5031247;28;20042;-79
2021/12/27 03:51:43;;;;;;;0.20;0.20;;;;;;;-7.41;100.00;100187.00;5025515;28;20343;-78
2021/12/27 03:54:16;;;;;;;0.30;0.30;;;;;;;-7.49;100.00;100187.84;5018490;28;20050;-78
2021/12/27 03:56:44;;;;;;;0.20;0.20;;;;;;;-7.45;100.00;100185.69;5031142;28;20061;-78
2021/12/27 03:59:23;;;;;;;0.20;0.20;;;;;;;-7.46;100.00;100187.50;5042420;28;20770;-77
2021/12/27 04:01:56;;;;;;;0.20;0.20;;;;;;;-7.33;100.00;100180.81;5024459;28;20414;-78
2021/12/27 04:04:24;;;;;;;0.20;0.20;;;;;;;-7.41;100.00;100171.13;5022970;28;20049;-77
2021/12/27 04:06:59;;;;;;;0.20;0.20;;;;;;;-7.32;100.00;100171.88;5026294;28;20041;-78
2021/12/27 04:09:33;;;;;;;0.20;0.20;;;;;;;-7.32;100.00;100180.63;5029257;28;20048;-78
2021/12/27 04:12:01;;;;;;;0.20;0.20;;;;;;;-7.47;100.00;100158.59;5024660;28;20054;-78
2021/12/27 04:14:34;;;;;;;0.20;0.20;;;;;;;-7.28;100.00;100189.84;5043697;28;20038;-78
2021/12/27 04:17:07;;;;;;;0.20;0.20;;;;;;;-7.26;100.00;100192.34;5029064;28;20057;-78
2021/12/27 04:19:36;;;;;;;0.20;0.20;;;;;;;-7.21;100.00;100185.53;5020668;28;20045;-78
2021/12/27 04:22:05;;;;;;;0.20;0.20;;;;;;;-7.20;100.00;100195.09;5017282;28;20052;-78
2021/12/27 04:24:38;;;;;;;0.20;0.20;;;;;;;-7.14;100.00;100196.22;5027053;28;20510;-78
2021/12/27 04:27:12;;;;;;;0.20;0.20;;;;;;;-7.15;100.00;100177.88;5019529;28;20061;-78
2021/12/27 04:29:45;;;;;;;0.20;0.20;;;;;;;-7.09;100.00;100171.91;5021922;28;20054;-78
2021/12/27 04:32:13;;;;;;;0.20;0.20;;;;;;;-7.17;100.00;100178.06;5017500;28;20041;-78
2021/12/27 04:34:46;;;;;;;0.20;0.20;;;;;;;-7.10;100.00;100176.34;5026923;28;20048;-78
2021/12/27 04:37:16;;;;;;;0.20;0.20;;;;;;;-7.12;100.00;100167.78;5029164;28;20497;-77
2021/12/27 04:39:44;;;;;;;0.22;0.22;;;;;;;-7.08;100.00;100161.13;5029925;28;20041;-77
2021/12/27 04:42:17;;;;;;;0.20;0.20;;;;;;;-7.11;100.00;100153.56;5023108;28;20057;-78
2021/12/27 04:44:47;;;;;;;0.20;0.20;;;;;;;-6.99;100.00;100158.44;5024288;28;20050;-78
2021/12/27 04:47:20;;;;;;;0.10;0.10;;;;;;;-7.05;100.00;100146.75;5023955;28;20065;-78
2021/12/27 04:49:53;;;;;;;0.10;0.10;;;;;;;-7.07;100.00;100152.22;5028159;28;20071;-78
2021/12/27 04:52:23;;;;;;;0.22;0.22;;;;;;;-7.06;100.00;100137.16;5025151;28;20054;-78
2021/12/27 04:54:56;;;;;;;0.20;0.20;;;;;;;-7.00;100.00;100136.47;5035244;28;20033;-77
2021/12/27 04:57:30;;;;;;;0.20;0.20;;;;;;;-6.99;100.00;100132.78;5026046;28;20072;-79
2021/12/27 05:00:05;;;;;;;0.20;0.20;;;;;;;-7.02;100.00;100144.53;5019277;28;20050;-78
2021/12/27 05:02:38;;;;;;;0.25;0.25;;;;;;;-6.99;100.00;100137.28;5015372;28;20053;-78
2021/12/27 05:05:11;;;;;;;0.10;0.10;;;;;;;-7.08;100.00;100134.69;5025820;28;20041;-78
2021/12/27 05:07:47;;;;;;;0.20;0.20;;;;;;;-7.04;100.00;100145.75;5024301;28;20375;-78
2021/12/27 05:10:16;;;;;;;0.20;0.20;;;;;;;-7.05;100.00;100136.97;5017678;28;20053;-78
2021/12/27 05:12:44;;;;;;;0.20;0.20;;;;;;;-7.07;100.00;100141.63;5026438;28;20433;-77
2021/12/27 05:15:18;;;;;;;0.15;0.15;;;;;;;-7.08;100.00;100133.88;5026590;28;20041;-78
2021/12/27 05:17:51;;;;;;;0.20;0.20;;;;;;;-7.09;100.00;100132.22;5022104;28;20053;-77
2021/12/27 05:20:24;;;;;;;0.20;0.20;;;;;;;-7.08;100.00;100125.94;5016092;28;20053;-78
2021/12/27 05:22:59;;;;;;;0.10;0.10;;;;;;;-7.12;100.00;100124.66;5027902;28;20042;-77
2021/12/27 05:25:32;;;;;;;0.10;0.10;;;;;;;-7.13;100.00;100123.81;5035770;28;20049;-78
2021/12/27 05:28:05;;;;;;;0.20;0.20;;;;;;;-7.19;100.00;100127.19;5029165;28;20037;-79
2021/12/27 05:30:41;;;;;;;0.13;0.13;;;;;;;-7.25;100.00;100112.00;5026262;28;20057;-78
2021/12/27 05:33:09;;;;;;;0.20;0.20;;;;;;;-7.27;100.00;100114.84;5027061;28;20053;-79
2021/12/27 05:35:42;;;;;;;0.20;0.20;;;;;;;-7.26;100.00;100103.28;5025912;28;20499;-78
2021/12/27 05:38:12;;;;;;;0.20;0.20;;;;;;;-7.18;100.00;100112.94;5025540;28;20054;-78
2021/12/27 05:40:40;;;;;;;0.20;0.20;;;;;;;-7.12;100.00;100117.53;5025464;28;20430;-79
2021/12/27 05:43:09;;;;;;;0.20;0.20;;;;;;;-7.13;100.00;100110.59;5019151;28;20391;-79
2021/12/27 05:45:42;;;;;;;0.20;0.20;;;;;;;-7.09;100.00;100103.13;5026533;28;20045;-78
2021/12/27 05:48:11;;;;;;;0.20;0.20;;;;;;;-7.06;100.00;100108.06;5025006;28;20054;-79
2021/12/27 05:50:44;;;;;;;0.20;0.20;;;;;;;-7.08;100.00;100105.59;5028999;28;20056;-78
2021/12/27 05:53:14;;;;;;;0.25;0.25;;;;;;;-7.07;100.00;100096.69;5030554;28;20059;-79
2021/12/27 05:55:47;;;;;;;0.20;0.20;;;;;;;-7.10;100.00;100101.47;5023487;28;20041;-79
2021/12/27 05:58:15;;;;;;;0.20;0.20;;;;;;;-7.09;100.00;100111.06;5027234;28;20651;-78
2021/12/27 06:00:49;;;;;;;0.20;0.20;;;;;;;-7.06;100.00;100105.41;5027262;28;20057;-78
2021/12/27 06:03:17;;;;;;;0.20;0.20;;;;;;;-7.03;100.00;100105.91;5025752;28;20057;-78
2021/12/27 06:05:50;;;;;;;0.10;0.10;;;;;;;-6.98;100.00;100101.91;5026775;28;20569;-78
2021/12/27 06:08:25;;;;;;;0.20;0.20;;;;;;;-6.97;100.00;100100.88;5030169;28;20051;-79
2021/12/27 06:10:58;;;;;;;0.20;0.20;;;;;;;-7.00;100.00;100110.00;5028919;28;20379;-79
2021/12/27 06:13:31;;;;;;;0.22;0.22;;;;;;;-7.02;100.00;100085.56;5027872;28;20057;-79
2021/12/27 06:16:05;;;;;;;0.20;0.20;;;;;;;-7.08;100.00;100073.88;5032692;28;20466;-78
2021/12/27 06:18:38;;;;;;;0.20;0.20;;;;;;;-6.97;100.00;100077.06;5031757;28;20037;-79
2021/12/27 06:21:11;;;;;;;0.20;0.20;;;;;;;-7.00;100.00;100086.22;5023780;28;20042;-79
2021/12/27 06:23:47;;;;;;;0.10;0.10;;;;;;;-6.98;100.00;100094.78;5027690;28;20049;-80
2021/12/27 06:26:20;;;;;;;0.20;0.20;;;;;;;-6.95;100.00;100083.81;5032366;28;20052;-78
2021/12/27 06:28:53;;;;;;;0.20;0.20;;;;;;;-6.89;100.00;100077.81;5033607;28;20045;-79
2021/12/27 06:31:26;;;;;;;0.10;0.10;;;;;;;-6.98;100.00;100070.16;5026022;28;20062;-78
2021/12/27 06:34:00;;;;;;;0.13;0.13;;;;;;;-6.91;100.00;100069.22;5025121;28;20057;-79
2021/12/27 06:36:28;;;;;;;0.20;0.20;;;;;;;-7.01;100.00;100069.50;5018130;28;20053;-78
2021/12/27 06:39:04;;;;;;;0.20;0.20;;;;;;;-6.92;100.00;100064.13;5026225;28;20053;-78
2021/12/27 06:41:38;;;;;;;0.20;0.20;;;;;;;-7.01;100.00;100068.69;5025905;28;20065;-79
2021/12/27 06:44:11;;;;;;;0.20;0.20;;;;;;;-6.97;100.00;100064.69;5020821;28;20049;-78
2021/12/27 06:46:44;;;;;;;0.20;0.20;;;;;;;-6.99;100.00;100069.31;5026897;28;20052;-78
2021/12/27 06:49:17;;;;;;;0.20;0.20;;;;;;;-6.93;100.00;100065.97;5024996;28;20049;-78
2021/12/27 06:51:51;;;;;;;0.20;0.20;;;;;;;-6.93;100.00;100060.66;5025051;28;20057;-78
2021/12/27 06:54:25;;;;;;;0.20;0.20;;;;;;;-6.92;100.00;100061.47;5026884;28;20405;-78
2021/12/27 06:56:54;;;;;;;0.30;0.30;;;;;;;-6.85;100.00;100060.59;5032696;28;20483;-79
2021/12/27 06:59:27;;;;;;;0.20;0.20;;;;;;;-6.86;100.00;100053.66;5022388;28;20038;-78
2021/12/27 07:01:56;;;;;;;0.17;0.17;;;;;;;-6.81;100.00;100070.81;5031618;28;20080;-77
2021/12/27 07:04:31;;;;;;;0.25;0.25;;;;;;;-6.83;100.00;100063.06;5020477;28;20061;-78
2021/12/27 07:06:59;;;;;;;0.10;0.10;;;;;;;-6.77;100.00;100067.59;5027755;28;20072;-79
2021/12/27 07:09:34;;;;;;;0.20;0.20;;;;;;;-6.83;100.00;100063.06;5024760;28;20402;-78
2021/12/27 07:12:08;;;;;;;0.20;0.20;;;;;;;-6.78;100.00;100063.34;5029825;28;20054;-77
2021/12/27 07:14:41;;;;;;;0.10;0.10;;;;;;;-6.73;100.00;100062.78;5034566;28;20501;-79
2021/12/27 07:17:14;;;;;;;0.20;0.20;;;;;;;-6.69;100.00;100064.88;5033203;28;20049;-79
2021/12/27 07:19:48;;;;;;;0.20;0.20;;;;;;;-6.71;100.00;100063.41;5024499;28;20053;-77
2021/12/27 07:22:21;;;;;;;0.28;0.28;;;;;;;-6.69;100.00;100050.81;5031258;28;20041;-77
2021/12/27 07:24:55;;;;;;;0.20;0.20;;;;;;;-6.61;100.00;100055.22;5034483;28;20053;-78
2021/12/27 07:27:29;;;;;;;0.20;0.20;;;;;;;-6.65;100.00;100053.94;5030722;28;20052;-79
2021/12/27 07:29:57;;;;;;;0.20;0.20;;;;;;;-6.60;100.00;100052.38;5034213;28;20053;-78
2021/12/27 07:32:30;;;;;;;0.20;0.20;;;;;;;-6.60;100.00;100056.84;5019390;28;20049;-79
2021/12/27 07:35:04;;;;;;;0.20;0.20;;;;;;;-6.47;100.00;100045.63;5017482;28;20053;-78
2021/12/27 07:37:37;;;;;;;0.30;0.30;;;;;;;-6.47;100.00;100054.38;5021040;28;20045;-78
2021/12/27 07:40:13;;;;;;;0.20;0.20;;;;;;;-6.46;100.00;100052.53;5022280;28;20054;-79
2021/12/27 07:42:46;;;;;;;0.22;0.22;;;;;;;-6.47;100.00;100046.44;5020803;28;20054;-78
2021/12/27 07:45:20;;;;;;;0.17;0.17;;;;;;;-6.45;100.00;100047.06;5028656;28;20049;-78
2021/12/27 07:47:48;;;;;;;0.20;0.20;;;;;;;-6.38;100.00;100039.22;5026255;28;20049;-77
2021/12/27 07:50:21;;;;;;;0.20;0.20;;;;;;;-6.40;100.00;100041.25;5028281;28;20049;-77
2021/12/27 07:52:55;;;;;;;0.20;0.20;;;;;;;-6.35;100.00;100044.97;5020419;28;20056;-79
2021/12/27 07:55:29;;;;;;;0.20;0.20;;;;;;;-6.39;100.00;100041.03;5030436;28;20364;-80
2021/12/27 07:58:03;;;;;;;0.20;0.20;;;;;;;-6.38;100.00;100034.75;5028043;28;20052;-79
2021/12/27 08:00:37;;;;;;;0.28;0.28;;;;;;;-6.34;100.00;100038.69;5026912;28;20057;-78
2021/12/27 08:03:11;;;;;;;0.20;0.20;;;;;;;-6.26;100.00;100039.56;5018416;28;20352;-79
2021/12/27 08:05:44;;;;;;;0.20;0.20;;;;;;;-6.25;100.00;100027.97;5024116;28;20045;-78
2021/12/27 08:08:17;;;;;;;0.13;0.13;;;;;;;-6.22;100.00;100035.53;5016835;28;20052;-79
2021/12/27 08:10:52;;;;;;;0.17;0.17;;;;;;;-6.20;100.00;100034.34;5022495;28;20095;-79
2021/12/27 08:13:25;;;;;;;0.20;0.20;;;;;;;-6.13;100.00;100031.78;5026195;28;20062;-79
2021/12/27 08:15:58;;;;;;;0.20;0.20;;;;;;;-6.16;100.00;100030.34;5015425;28;20061;-78
2021/12/27 08:18:27;;;;;;;0.20;0.20;;;;;;;-6.12;100.00;100033.41;5015772;28;20057;-78
2021/12/27 08:21:00;;;;;;;0.20;0.20;;;;;;;-6.06;100.00;100032.69;5022685;28;20068;-78
2021/12/27 08:23:33;;;;;;;0.30;0.30;;;;;;;-6.12;100.00;100019.34;5018105;28;20058;-78
2021/12/27 08:26:08;;;;;;;0.20;0.20;;;;;;;-5.92;100.00;100027.47;5028972;28;20041;-78
2021/12/27 08:28:42;;;;;;;0.20;0.20;;;;;;;-5.96;100.00;100019.09;5025603;28;20041;-79
2021/12/27 08:31:15;;;;;;;0.20;0.20;;;;;;;-5.87;100.00;100012.69;5021108;28;20061;-79
2021/12/27 08:33:48;;;;;;;0.20;0.20;;;;;;;-5.85;100.00;100018.59;5020022;28;20053;-79
2021/12/27 08:36:22;;;;;;;0.30;0.30;;;;;;;-5.82;100.00;100014.75;5029381;28;20054;-80
2021/12/27 08:38:55;;;;;;;0.20;0.20;;;;;;;-5.87;100.00;100009.19;5019575;28;20041;-79
2021/12/27 08:41:30;;;;;;;0.30;0.30;;;;;;;-5.70;100.00;100015.88;5043117;28;20037;-79
2021/12/27 08:44:05;;;;;;;0.28;0.28;;;;;;;-5.72;100.00;99999.34;5022233;28;20042;-78
2021/12/27 08:46:38;;;;;;;0.20;0.20;;;;;;;-5.76;100.00;100002.56;5022162;28;20386;-78
2021/12/27 08:49:11;;;;;;;0.20;0.20;;;;;;;-5.71;100.00;99997.53;5046588;28;20053;-79
2021/12/27 08:51:40;;;;;;;0.30;0.30;;;;;;;-5.68;100.00;100003.25;5024195;28;20064;-78
2021/12/27 08:54:13;;;;;;;0.20;0.20;;;;;;;-5.77;100.00;99985.03;5018613;28;20053;-80
2021/12/27 08:56:48;;;;;;;0.28;0.28;;;;;;;-5.66;100.00;100003.91;5024332;28;20060;-79
2021/12/27 08:59:16;;;;;;;0.20;0.20;;;;;;;-5.60;100.00;100009.47;5027823;28;20060;-78
2021/12/27 09:01:50;;;;;;;0.20;0.20;;;;;;;-5.48;100.00;100014.06;5021211;28;20054;-77
2021/12/27 09:04:23;;;;;;;0.20;0.20;;;;;;;-5.46;100.00;100006.72;5019061;28;20041;-77
2021/12/27 09:06:52;;;;;;;0.25;0.25;;;;;;;-5.39;100.00;100001.47;5029291;28;20038;-78
2021/12/27 09:09:25;;;;;;;0.20;0.20;;;;;;;-5.44;100.00;100006.53;5016917;28;20057;-77
2021/12/27 09:12:00;;;;;;;0.20;0.20;;;;;;;-5.33;100.00;100008.66;5016336;28;20049;-79
2021/12/27 09:14:34;;;;;;;0.20;0.20;;;;;;;-5.30;100.00;100016.22;5019725;28;20487;-78
2021/12/27 09:17:03;;;;;;;0.20;0.20;;;;;;;-5.30;100.00;100021.53;5009856;28;20065;-79
2021/12/27 09:19:32;;;;;;;0.20;0.20;;;;;;;-5.28;100.00;100008.09;5002910;28;20060;-81
2021/12/27 09:22:05;;;;;;;0.30;0.30;;;;;;;-5.27;100.00;100016.88;4997393;28;20088;-79
2021/12/27 09:24:33;;;;;;;0.20;0.20;;;;;;;-5.14;100.00;100020.44;5001108;28;20502;-80
2021/12/27 09:27:09;;;;;;;0.20;0.20;;;;;;;-5.17;100.00;100026.13;5009883;28;20050;-82
2021/12/27 09:29:43;;;;;;;0.13;0.13;;;;;;;-5.12;100.00;100026.38;5007829;28;20057;-80
2021/12/27 09:32:16;;;;;;;0.30;0.30;;;;;;;-5.25;100.00;100012.19;5008497;28;20064;-81
2021/12/27 09:34:50;;;;;;;0.20;0.20;;;;;;;-5.24;100.00;100005.88;5007594;28;20159;-79
2021/12/27 09:37:19;;;;;;;0.20;0.20;;;;;;;-5.16;100.00;100009.19;5006463;28;20060;-79
2021/12/27 09:39:54;;;;;;;0.20;0.20;;;;;;;-5.07;100.00;100012.50;5006860;28;20054;-82
2021/12/27 09:42:28;;;;;;;0.20;0.20;;;;;;;-5.01;100.00;100005.63;5003092;28;20072;-79
2021/12/27 09:45:03;;;;;;;0.22;0.22;;;;;;;-5.04;100.00;100009.50;5008042;28;20052;-79
2021/12/27 09:47:37;;;;;;;0.30;0.30;;;;;;;-4.95;100.00;99995.03;5007679;28;20054;-79
2021/12/27 09:50:08;;;;;;;0.30;0.30;;;;;;;-4.88;100.00;99989.78;5012303;28;21435;-80
2021/12/27 09:52:37;;;;;;;0.20;0.20;;;;;;;-4.92;100.00;99977.91;5009738;28;20068;-80
2021/12/27 09:55:07;;;;;;;0.30;0.30;;;;;;;-4.81;100.00;99987.97;5009376;28;20057;-79
2021/12/27 09:57:37;;;;;;;0.32;0.32;;;;;;;-4.74;100.00;99963.31;5010326;28;20061;-80
2021/12/27 10:00:07;;;;;;;0.10;0.10;;;;;;;-4.64;100.00;99958.44;5005197;28;20054;-80
2021/12/27 10:02:36;;;;;;;0.25;0.25;;;;;;;-4.57;100.00;99963.78;5009071;28;20057;-80
2021/12/27 10:05:10;;;;;;;0.20;0.20;;;;;;;-4.50;100.00;99961.97;5007968;28;20065;-79
2021/12/27 10:07:43;;;;;;;0.20;0.20;;;;;;;-4.50;100.00;99946.03;5009074;28;20072;-81
2021/12/27 10:10:16;;;;;;;0.20;0.20;;;;;;;-4.45;100.00;99954.22;5007657;28;20797;-81
2021/12/27 10:12:51;;;;;;;0.30;0.30;;;;;;;-4.46;100.00;99941.97;5005632;28;20059;-82
2021/12/27 10:15:34;;;;;;;0.20;0.20;;;;;;;-4.49;100.00;99935.25;5009620;28;20533;-80
2021/12/27 10:18:07;;;;;;;;;;;;;;;-4.50;100.00;99930.94;5009765;28;20053;-79
2021/12/27 10:20:35;;;;;;;0.25;0.25;;;;;;;-4.69;100.00;99894.53;5008190;28;19936;-80
2021/12/27 10:23:10;;;;;;;0.20;0.20;;;;;;;-4.42;100.00;99937.91;5007243;28;20060;-80
2021/12/27 10:25:43;;;;;;;0.22;0.22;;;;;;;-4.31;100.00;99940.00;5023155;28;20061;-78
2021/12/27 10:28:26;;;;;;;0.20;0.20;;;;;;;-4.20;100.00;99935.91;5012551;28;20065;-80
2021/12/27 10:31:03;;;;;;;0.30;0.30;;;;;;;-4.21;100.00;99942.25;5006669;28;20058;-78
2021/12/27 10:33:36;;;;;;;;;;;;;;;-4.16;100.00;99946.97;5011414;28;20053;-78
2021/12/27 10:36:05;;;;;;;0.20;0.20;;;;;;;-4.25;100.00;99940.19;5010465;28;19948;-80
2021/12/27 10:38:40;;;;;;;0.30;0.30;;;;;;;-4.22;100.00;99939.81;5007501;28;20061;-78
2021/12/27 10:41:13;;;;;;;0.20;0.20;;;;;;;-4.15;100.00;99936.13;4988175;28;20618;-80
2021/12/27 10:43:50;;;;;;;0.30;0.30;;;;;;;-4.13;100.00;99936.75;5009003;28;20064;-82
2021/12/27 10:46:23;;;;;;;0.28;0.28;;;;;;;-4.08;100.00;99940.66;5008813;28;20053;-79
2021/12/27 10:48:59;;;;;;;0.25;0.25;;;;;;;-4.09;100.00;99923.88;5009590;28;20053;-80
2021/12/27 10:51:29;;;;;;;0.20;0.20;;;;;;;-3.91;100.00;99935.75;5006441;28;20053;-78
2021/12/27 10:53:59;;;;;;;0.25;0.25;;;;;;;-3.87;100.00;99939.66;5015602;28;20052;-78
2021/12/27 10:56:50;;;;;;;0.20;0.20;;;;;;;-3.87;100.00;99910.41;5009536;28;20054;-80
2021/12/27 10:59:25;;;;;;;0.30;0.30;;;;;;;-3.85;100.00;99916.31;5007902;28;20132;-81
2021/12/27 11:02:09;;;;;;;0.20;0.20;;;;;;;-3.85;100.00;99918.97;5007834;28;20057;-79
2021/12/27 11:04:42;;;;;;;0.30;0.30;;;;;;;-3.87;100.00;99921.03;5007993;28;20057;-81
2021/12/27 11:07:16;;;;;;;0.30;0.30;;;;;;;-3.93;100.00;99909.38;5010960;28;20060;-80
2021/12/27 11:09:49;;;;;;;0.20;0.20;;;;;;;-3.84;100.00;99916.16;5007265;28;20056;-81
2021/12/27 11:12:22;;;;;;;0.30;0.30;;;;;;;-3.83;100.00;99919.63;5007706;28;20525;-81
2021/12/27 11:14:58;;;;;;;0.20;0.20;;;;;;;-3.69;100.00;99917.78;5005847;28;20054;-81
2021/12/27 11:17:31;;;;;;;0.25;0.22;;;;;;;-3.71;100.00;99910.00;5004689;28;20057;-80
2021/12/27 11:19:59;;;;;;;0.20;0.20;;;;;;;-3.60;100.00;99913.91;5005899;28;20745;-82
2021/12/27 11:22:32;;;;;;;0.20;0.20;;;;;;;-3.53;100.00;99917.34;5008086;28;20108;-81
2021/12/27 11:25:08;;;;;;;0.32;0.30;;;;;;;-3.59;100.00;99912.84;5015768;28;20430;-81
2021/12/27 11:27:41;;;;;;;0.30;0.30;;;;;;;-3.60;100.00;99909.38;5009900;28;20069;-80
2021/12/27 11:30:22;;;;;;;0.20;0.20;;;;;;;-3.53;100.00;99908.56;5005461;28;20053;-80
2021/12/27 11:33:08;;;;;;;0.30;0.30;;;;;;;-3.49;100.00;99901.81;5010075;28;20065;-80
2021/12/27 11:35:39;;;;;;;0.30;0.30;;;;;;;-3.48;100.00;99890.97;5013693;28;20053;-81
2021/12/27 11:38:19;;;;;;;0.32;0.32;;;;;;;-3.49;100.00;99889.31;5008492;28;20049;-80
2021/12/27 11:40:52;;;;;;;0.28;0.28;;;;;;;-3.40;100.00;99886.44;5010250;28;20038;-80
2021/12/27 11:43:20;;;;;;;0.20;0.20;;;;;;;-3.44;100.00;99880.72;5007477;28;20057;-81
2021/12/27 11:45:53;;;;;;;0.30;0.30;;;;;;;-3.48;100.00;99871.50;5005236;28;20149;-80